createdAt,value
2022-11-16T00:05:18.143Z,11.23
2022-11-16T00:11:41.176Z,11.22
2022-11-16T00:18:01.186Z,11.23
2022-11-16T00:24:24.194Z,11.23
2022-11-16T00:30:44.179Z,11.24
2022-11-16T00:37:07.226Z,11.23
2022-11-16T00:43:27.254Z,11.23
2022-11-16T00:49:50.194Z,11.22
2022-11-16T00:56:10.280Z,11.22
2022-11-16T01:02:33.159Z,11.21
2022-11-16T01:08:53.163Z,11.22
2022-11-16T01:15:16.196Z,11.23
2022-11-16T01:21:36.246Z,11.24
2022-11-16T01:27:59.239Z,11.25
2022-11-16T01:34:19.182Z,11.26
2022-11-16T01:40:42.200Z,11.28
2022-11-16T01:47:02.186Z,11.29
2022-11-16T01:53:25.193Z,11.3
2022-11-16T01:59:45.193Z,11.3
2022-11-16T02:06:08.193Z,11.33
2022-11-16T02:12:28.237Z,11.37
2022-11-16T02:18:51.201Z,11.41
2022-11-16T02:25:11.212Z,11.47
2022-11-16T02:31:34.231Z,11.54
2022-11-16T02:37:54.157Z,11.59
2022-11-16T02:44:17.167Z,11.61
2022-11-16T02:50:37.253Z,11.61
2022-11-16T02:57:00.163Z,11.57
2022-11-16T03:03:20.233Z,11.52
2022-11-16T03:09:43.199Z,11.48
2022-11-16T03:16:03.245Z,11.46
2022-11-16T03:22:26.202Z,11.45
2022-11-16T03:28:46.202Z,11.42
2022-11-16T03:35:09.226Z,11.42
2022-11-16T03:41:29.203Z,11.4
2022-11-16T03:47:52.208Z,11.38
2022-11-16T03:54:12.221Z,11.36
2022-11-16T04:00:35.215Z,11.34
2022-11-16T04:06:55.245Z,11.33
2022-11-16T04:13:18.182Z,11.33
2022-11-16T04:19:38.204Z,11.33
2022-11-16T04:36:20.361Z,11.29
2022-11-16T04:42:35.152Z,11.26
2022-11-16T04:48:58.170Z,11.24
2022-11-16T04:55:18.184Z,11.24
2022-11-16T05:01:41.241Z,11.24
2022-11-16T05:08:01.153Z,11.25
2022-11-16T05:14:24.199Z,11.27
2022-11-16T05:20:44.195Z,11.24
2022-11-16T05:27:07.172Z,11.21
2022-11-16T05:33:27.250Z,11.21
2022-11-16T05:39:50.234Z,11.17
2022-11-16T05:46:10.147Z,11.16
2022-11-16T05:52:33.238Z,11.14
2022-11-16T05:58:53.153Z,11.1
2022-11-16T06:05:16.239Z,11.02
2022-11-16T06:11:36.428Z,10.86
2022-11-16T06:17:59.910Z,10.7
2022-11-16T06:24:19.159Z,10.55
2022-11-16T06:30:42.206Z,10.48
2022-11-16T06:37:02.585Z,10.44
2022-11-16T06:43:25.168Z,10.45
2022-11-16T06:49:45.136Z,10.42
2022-11-16T06:56:09.370Z,10.45
2022-11-16T07:02:28.139Z,10.46
2022-11-16T07:08:51.245Z,10.42
2022-11-16T07:15:11.196Z,10.37
2022-11-16T07:21:34.180Z,10.35
2022-11-16T07:27:54.216Z,10.32
2022-11-16T07:34:17.324Z,10.32
2022-11-16T07:40:37.245Z,10.21
2022-11-16T07:47:00.191Z,10.13
2022-11-16T07:53:20.211Z,10.1
2022-11-16T07:59:43.255Z,9.98
2022-11-16T08:06:03.210Z,9.96
2022-11-16T08:12:26.324Z,9.96
2022-11-16T08:18:46.205Z,10.03
2022-11-16T08:25:09.167Z,10.13
2022-11-16T08:31:29.211Z,10.28
2022-11-16T08:37:52.163Z,10.47
2022-11-16T08:44:12.157Z,10.72
2022-11-16T08:50:49.500Z,10.91
2022-11-16T08:56:55.223Z,11.11
2022-11-16T09:03:18.203Z,11.3
2022-11-16T09:09:38.336Z,11.44
2022-11-16T09:16:01.156Z,11.61
2022-11-16T09:22:21.243Z,11.76
2022-11-16T09:28:44.279Z,11.92
2022-11-16T09:44:51.275Z,12.32
2022-11-16T09:51:11.150Z,12.49
2022-11-16T09:57:34.221Z,12.69
2022-11-16T10:03:54.229Z,12.92
2022-11-16T10:10:17.191Z,13.14
2022-11-16T10:16:37.192Z,13.31
2022-11-16T10:23:00.226Z,13.42
2022-11-16T10:29:20.201Z,13.6
2022-11-16T10:35:43.191Z,13.81
2022-11-16T10:42:07.188Z,13.93
2022-11-16T10:48:26.208Z,14.13
2022-11-16T10:54:46.185Z,14.24
2022-11-16T11:01:09.454Z,14.45
2022-11-16T11:07:29.225Z,14.69
2022-11-16T11:13:52.157Z,14.88
2022-11-16T11:20:12.290Z,15.03
2022-11-16T11:26:37.051Z,15.2
2022-11-16T11:32:55.200Z,15.4
2022-11-16T11:39:18.223Z,15.49
2022-11-16T11:45:38.166Z,15.59
2022-11-16T11:52:01.192Z,15.75
2022-11-16T11:58:21.297Z,15.92
2022-11-16T12:04:44.194Z,15.9
2022-11-16T12:11:04.192Z,16.1
2022-11-16T12:17:27.287Z,16.32
2022-11-16T12:23:47.205Z,16.24
2022-11-16T12:30:10.175Z,16.35
2022-11-16T12:36:30.297Z,16.5
2022-11-16T12:42:53.164Z,16.23
2022-11-16T12:49:13.163Z,16.12
2022-11-16T12:55:36.232Z,16.3
2022-11-16T13:02:00.246Z,16.2
2022-11-16T13:08:19.293Z,16.2
2022-11-16T13:14:39.281Z,16.08
2022-11-16T13:21:02.159Z,15.92
2022-11-16T13:27:22.193Z,15.84
2022-11-16T13:33:50.384Z,15.9
2022-11-16T13:40:05.196Z,15.83
2022-11-16T13:46:54.586Z,15.71
2022-11-16T13:53:32.037Z,15.42
2022-11-16T13:59:11.212Z,14.96
2022-11-16T14:05:31.305Z,14.58
2022-11-16T14:11:54.551Z,14.31
2022-11-16T14:18:14.189Z,14.1
2022-11-16T14:24:37.242Z,14
2022-11-16T14:30:57.216Z,14.05
2022-11-16T14:37:20.199Z,14.02
2022-11-16T14:43:40.195Z,13.96
2022-11-16T14:50:03.274Z,13.82
2022-11-16T15:12:50.790Z,13.47
2022-11-16T15:19:10.153Z,13.32
2022-11-16T15:25:33.183Z,13.14
2022-11-16T15:31:53.272Z,12.96
2022-11-16T15:38:17.367Z,12.82
2022-11-16T15:44:37.203Z,12.68
2022-11-16T15:51:04.408Z,12.61
2022-11-16T15:57:20.224Z,12.5
2022-11-16T16:03:43.469Z,12.41
2022-11-16T16:10:03.367Z,12.28
2022-11-16T16:16:26.203Z,12.1
2022-11-16T16:22:46.190Z,11.86
2022-11-16T16:29:09.174Z,11.61
2022-11-16T16:35:29.176Z,11.37
2022-11-16T16:41:52.270Z,11.21
2022-11-16T16:48:12.349Z,11.1
2022-11-16T16:54:35.185Z,10.97
2022-11-16T17:00:59.940Z,10.83
2022-11-16T17:07:18.320Z,10.72
2022-11-16T17:13:38.282Z,10.63
2022-11-16T17:20:01.391Z,10.55
2022-11-16T17:26:21.310Z,10.51
2022-11-16T17:32:44.130Z,10.49
2022-11-16T17:39:04.176Z,10.45
2022-11-16T17:45:27.290Z,10.4
2022-11-16T17:51:47.154Z,10.36
2022-11-16T17:58:10.250Z,10.28
2022-11-16T18:04:30.169Z,10.21
2022-11-16T18:10:53.189Z,10.14
2022-11-16T18:17:13.212Z,10.02
2022-11-16T18:23:36.727Z,9.95
2022-11-16T18:29:56.220Z,9.9
2022-11-16T18:36:19.149Z,9.87
2022-11-16T18:42:39.232Z,9.83
2022-11-16T18:49:02.158Z,9.8
2022-11-16T18:55:22.194Z,9.8
2022-11-16T19:01:45.191Z,9.81
2022-11-16T19:08:05.162Z,9.86
2022-11-16T19:14:28.244Z,9.9
2022-11-16T19:20:48.207Z,9.92
2022-11-16T19:27:11.322Z,9.9
2022-11-16T19:33:31.281Z,9.88
2022-11-16T19:39:54.307Z,9.88
2022-11-16T19:46:14.188Z,9.87
2022-11-16T19:52:37.192Z,9.86
2022-11-16T20:16:19.035Z,9.96
2022-11-16T20:22:39.181Z,9.98
2022-11-16T20:29:02.182Z,9.99
2022-11-16T20:35:22.288Z,9.98
2022-11-16T20:41:45.177Z,10.01
2022-11-16T20:48:05.210Z,10.07
2022-11-16T20:54:28.202Z,10.12
2022-11-16T21:00:48.164Z,10.14
2022-11-16T21:07:11.198Z,10.17
2022-11-16T21:13:31.279Z,10.17
2022-11-16T21:20:12.468Z,10.21
2022-11-16T21:26:14.206Z,10.25
2022-11-16T21:32:37.432Z,10.31
2022-11-16T21:38:57.166Z,10.35
2022-11-16T21:45:20.189Z,10.38
2022-11-16T21:51:40.314Z,10.41
2022-11-16T21:58:03.255Z,10.44
2022-11-16T22:04:23.250Z,10.48
2022-11-16T22:10:46.275Z,10.53
2022-11-16T22:17:06.181Z,10.6
2022-11-16T22:23:29.193Z,10.65
2022-11-16T22:29:49.314Z,10.68
2022-11-16T22:36:12.221Z,10.67
2022-11-16T22:42:32.176Z,10.6
2022-11-16T22:48:55.296Z,10.54
2022-11-16T22:55:15.174Z,10.48
2022-11-16T23:20:49.285Z,10.43
2022-11-16T23:27:09.157Z,10.43
2022-11-16T23:33:32.431Z,10.41
2022-11-16T23:39:52.312Z,10.39
2022-11-16T23:46:15.212Z,10.39
2022-11-16T23:52:35.202Z,10.4
2022-11-16T23:58:58.393Z,10.42
